sensor_id;sensor_type;location;lat;lon;timestamp;temperature;humidity
13992;DHT22;7070;53.586;9.692;2023-05-19T00:01:08;7.20;69.20
13992;DHT22;7070;53.586;9.692;2023-05-19T00:03:48;7.20;69.20
13992;DHT22;7070;53.586;9.692;2023-05-19T00:06:20;7.20;69.40
13992;DHT22;7070;53.586;9.692;2023-05-19T00:08:49;7.20;69.60
13992;DHT22;7070;53.586;9.692;2023-05-19T00:11:18;7.10;69.60
13992;DHT22;7070;53.586;9.692;2023-05-19T00:13:46;7.00;69.60
13992;DHT22;7070;53.586;9.692;2023-05-19T00:16:15;7.00;69.60
13992;DHT22;7070;53.586;9.692;2023-05-19T00:18:42;7.00;69.70
13992;DHT22;7070;53.586;9.692;2023-05-19T00:21:09;7.00;69.80
13992;DHT22;7070;53.586;9.692;2023-05-19T00:23:36;7.00;69.80
13992;DHT22;7070;53.586;9.692;2023-05-19T00:26:03;7.00;69.90
13992;DHT22;7070;53.586;9.692;2023-05-19T00:28:31;6.90;70.00
13992;DHT22;7070;53.586;9.692;2023-05-19T00:30:58;6.90;70.00
13992;DHT22;7070;53.586;9.692;2023-05-19T00:33:25;6.80;70.10
13992;DHT22;7070;53.586;9.692;2023-05-19T00:35:52;6.90;70.30
13992;DHT22;7070;53.586;9.692;2023-05-19T00:38:19;6.80;70.30
13992;DHT22;7070;53.586;9.692;2023-05-19T00:40:46;6.80;70.30
13992;DHT22;7070;53.586;9.692;2023-05-19T00:43:13;6.80;70.40
13992;DHT22;7070;53.586;9.692;2023-05-19T00:45:41;6.80;70.50
13992;DHT22;7070;53.586;9.692;2023-05-19T00:48:08;6.80;70.60
13992;DHT22;7070;53.586;9.692;2023-05-19T00:50:35;6.70;70.70
13992;DHT22;7070;53.586;9.692;2023-05-19T00:53:02;6.80;70.80
13992;DHT22;7070;53.586;9.692;2023-05-19T00:55:30;6.80;70.90
13992;DHT22;7070;53.586;9.692;2023-05-19T00:57:57;6.70;70.80
13992;DHT22;7070;53.586;9.692;2023-05-19T01:00:24;6.70;70.80
13992;DHT22;7070;53.586;9.692;2023-05-19T01:02:52;6.80;71.00
13992;DHT22;7070;53.586;9.692;2023-05-19T01:05:20;6.80;71.00
13992;DHT22;7070;53.586;9.692;2023-05-19T01:07:48;6.70;70.90
13992;DHT22;7070;53.586;9.692;2023-05-19T01:10:18;6.70;70.90
13992;DHT22;7070;53.586;9.692;2023-05-19T01:12:45;6.60;70.90
13992;DHT22;7070;53.586;9.692;2023-05-19T01:15:12;6.60;70.90
13992;DHT22;7070;53.586;9.692;2023-05-19T01:20:38;6.60;70.90
13992;DHT22;7070;53.586;9.692;2023-05-19T01:23:27;6.60;71.10
13992;DHT22;7070;53.586;9.692;2023-05-19T01:29:10;6.50;71.00
13992;DHT22;7070;53.586;9.692;2023-05-19T01:31:41;6.50;70.90
13992;DHT22;7070;53.586;9.692;2023-05-19T01:34:12;6.40;71.00
13992;DHT22;7070;53.586;9.692;2023-05-19T01:36:41;6.50;71.10
13992;DHT22;7070;53.586;9.692;2023-05-19T01:39:09;6.40;71.10
13992;DHT22;7070;53.586;9.692;2023-05-19T01:41:39;6.40;71.10
13992;DHT22;7070;53.586;9.692;2023-05-19T01:44:07;6.40;71.10
13992;DHT22;7070;53.586;9.692;2023-05-19T01:46:36;6.40;71.20
13992;DHT22;7070;53.586;9.692;2023-05-19T01:49:05;6.30;71.20
13992;DHT22;7070;53.586;9.692;2023-05-19T01:51:33;6.30;71.30
13992;DHT22;7070;53.586;9.692;2023-05-19T01:54:00;6.30;72.10
13992;DHT22;7070;53.586;9.692;2023-05-19T01:56:33;6.30;71.40
13992;DHT22;7070;53.586;9.692;2023-05-19T01:59:14;6.20;71.40
13992;DHT22;7070;53.586;9.692;2023-05-19T02:01:50;6.20;71.40
13992;DHT22;7070;53.586;9.692;2023-05-19T02:04:27;6.20;71.50
13992;DHT22;7070;53.586;9.692;2023-05-19T02:07:01;6.20;71.40
13992;DHT22;7070;53.586;9.692;2023-05-19T02:09:36;6.20;71.60
13992;DHT22;7070;53.586;9.692;2023-05-19T02:12:10;6.20;71.70
13992;DHT22;7070;53.586;9.692;2023-05-19T02:14:40;6.20;71.70
13992;DHT22;7070;53.586;9.692;2023-05-19T02:17:12;6.10;71.70
13992;DHT22;7070;53.586;9.692;2023-05-19T02:19:42;6.10;71.80
13992;DHT22;7070;53.586;9.692;2023-05-19T02:22:09;6.10;71.80
13992;DHT22;7070;53.586;9.692;2023-05-19T02:24:36;6.10;71.80
13992;DHT22;7070;53.586;9.692;2023-05-19T02:27:04;6.20;72.00
13992;DHT22;7070;53.586;9.692;2023-05-19T02:29:31;6.20;71.90
13992;DHT22;7070;53.586;9.692;2023-05-19T02:31:59;6.10;71.80
13992;DHT22;7070;53.586;9.692;2023-05-19T02:34:26;6.10;71.90
13992;DHT22;7070;53.586;9.692;2023-05-19T02:36:54;6.10;72.00
13992;DHT22;7070;53.586;9.692;2023-05-19T02:39:22;6.00;72.00
13992;DHT22;7070;53.586;9.692;2023-05-19T02:41:49;6.10;72.10
13992;DHT22;7070;53.586;9.692;2023-05-19T02:44:15;6.10;72.10
13992;DHT22;7070;53.586;9.692;2023-05-19T02:46:42;6.10;72.10
13992;DHT22;7070;53.586;9.692;2023-05-19T02:49:09;6.10;72.20
13992;DHT22;7070;53.586;9.692;2023-05-19T02:51:36;6.10;72.30
13992;DHT22;7070;53.586;9.692;2023-05-19T02:54:04;6.10;72.30
13992;DHT22;7070;53.586;9.692;2023-05-19T02:56:31;6.10;72.20
13992;DHT22;7070;53.586;9.692;2023-05-19T02:58:58;6.00;72.20
13992;DHT22;7070;53.586;9.692;2023-05-19T03:01:25;6.00;72.30
13992;DHT22;7070;53.586;9.692;2023-05-19T03:03:52;6.00;73.00
13992;DHT22;7070;53.586;9.692;2023-05-19T03:06:18;6.00;72.30
13992;DHT22;7070;53.586;9.692;2023-05-19T03:08:48;6.00;72.50
13992;DHT22;7070;53.586;9.692;2023-05-19T03:11:16;6.00;72.50
13992;DHT22;7070;53.586;9.692;2023-05-19T03:13:43;6.00;72.60
13992;DHT22;7070;53.586;9.692;2023-05-19T03:16:10;6.00;72.70
13992;DHT22;7070;53.586;9.692;2023-05-19T03:18:40;6.00;72.70
13992;DHT22;7070;53.586;9.692;2023-05-19T03:21:07;6.00;72.80
13992;DHT22;7070;53.586;9.692;2023-05-19T03:23:33;6.00;72.80
13992;DHT22;7070;53.586;9.692;2023-05-19T03:26:00;6.00;72.90
13992;DHT22;7070;53.586;9.692;2023-05-19T03:28:28;6.00;73.00
13992;DHT22;7070;53.586;9.692;2023-05-19T03:30:55;6.00;73.00
13992;DHT22;7070;53.586;9.692;2023-05-19T03:33:22;6.10;73.10
13992;DHT22;7070;53.586;9.692;2023-05-19T03:35:49;6.10;73.20
13992;DHT22;7070;53.586;9.692;2023-05-19T03:38:17;6.10;73.20
13992;DHT22;7070;53.586;9.692;2023-05-19T03:40:44;6.20;73.30
13992;DHT22;7070;53.586;9.692;2023-05-19T03:43:11;6.10;73.30
13992;DHT22;7070;53.586;9.692;2023-05-19T03:45:39;6.20;73.40
13992;DHT22;7070;53.586;9.692;2023-05-19T03:48:06;6.20;73.40
13992;DHT22;7070;53.586;9.692;2023-05-19T03:50:33;6.30;73.50
13992;DHT22;7070;53.586;9.692;2023-05-19T03:52:59;6.30;73.40
13992;DHT22;7070;53.586;9.692;2023-05-19T03:55:26;6.40;73.60
13992;DHT22;7070;53.586;9.692;2023-05-19T03:57:54;6.40;73.50
13992;DHT22;7070;53.586;9.692;2023-05-19T04:00:21;6.50;73.60
13992;DHT22;7070;53.586;9.692;2023-05-19T04:02:50;6.50;73.70
13992;DHT22;7070;53.586;9.692;2023-05-19T04:05:16;6.60;73.70
13992;DHT22;7070;53.586;9.692;2023-05-19T04:07:43;6.70;73.80
13992;DHT22;7070;53.586;9.692;2023-05-19T04:10:11;6.80;73.80
13992;DHT22;7070;53.586;9.692;2023-05-19T04:12:38;6.80;73.70
13992;DHT22;7070;53.586;9.692;2023-05-19T04:15:06;6.80;73.80
13992;DHT22;7070;53.586;9.692;2023-05-19T04:17:35;7.00;73.90
13992;DHT22;7070;53.586;9.692;2023-05-19T04:20:05;7.00;73.80
13992;DHT22;7070;53.586;9.692;2023-05-19T04:22:32;7.20;73.80
13992;DHT22;7070;53.586;9.692;2023-05-19T04:24:58;7.20;73.80
13992;DHT22;7070;53.586;9.692;2023-05-19T04:27:26;7.30;73.80
13992;DHT22;7070;53.586;9.692;2023-05-19T04:29:54;7.40;73.80
13992;DHT22;7070;53.586;9.692;2023-05-19T04:32:22;7.50;73.80
13992;DHT22;7070;53.586;9.692;2023-05-19T04:34:50;7.60;74.50
13992;DHT22;7070;53.586;9.692;2023-05-19T04:37:18;7.60;73.50
13992;DHT22;7070;53.586;9.692;2023-05-19T04:39:45;7.70;73.50
13992;DHT22;7070;53.586;9.692;2023-05-19T04:42:12;7.80;73.50
13992;DHT22;7070;53.586;9.692;2023-05-19T04:44:43;7.90;73.50
13992;DHT22;7070;53.586;9.692;2023-05-19T04:47:10;8.00;74.20
13992;DHT22;7070;53.586;9.692;2023-05-19T04:49:37;8.00;73.30
13992;DHT22;7070;53.586;9.692;2023-05-19T04:52:05;8.10;73.30
13992;DHT22;7070;53.586;9.692;2023-05-19T04:54:37;8.20;73.30
13992;DHT22;7070;53.586;9.692;2023-05-19T04:57:04;8.20;73.10
13992;DHT22;7070;53.586;9.692;2023-05-19T04:59:31;8.30;73.10
13992;DHT22;7070;53.586;9.692;2023-05-19T05:01:58;8.40;73.80
13992;DHT22;7070;53.586;9.692;2023-05-19T05:04:25;8.50;73.00
13992;DHT22;7070;53.586;9.692;2023-05-19T05:06:52;8.50;72.70
13992;DHT22;7070;53.586;9.692;2023-05-19T05:09:19;8.60;72.70
13992;DHT22;7070;53.586;9.692;2023-05-19T05:11:48;8.70;72.70
13992;DHT22;7070;53.586;9.692;2023-05-19T05:14:16;8.80;72.70
13992;DHT22;7070;53.586;9.692;2023-05-19T05:16:43;8.80;72.60
13992;DHT22;7070;53.586;9.692;2023-05-19T05:19:11;8.90;72.60
13992;DHT22;7070;53.586;9.692;2023-05-19T05:21:39;9.00;72.60
13992;DHT22;7070;53.586;9.692;2023-05-19T05:24:07;9.10;72.40
13992;DHT22;7070;53.586;9.692;2023-05-19T05:26:35;9.10;72.30
13992;DHT22;7070;53.586;9.692;2023-05-19T05:29:03;9.30;72.20
13992;DHT22;7070;53.586;9.692;2023-05-19T05:31:30;9.30;72.20
13992;DHT22;7070;53.586;9.692;2023-05-19T05:33:58;9.40;72.20
13992;DHT22;7070;53.586;9.692;2023-05-19T05:36:25;9.50;72.00
13992;DHT22;7070;53.586;9.692;2023-05-19T05:38:52;9.60;72.00
13992;DHT22;7070;53.586;9.692;2023-05-19T05:41:18;9.60;72.00
13992;DHT22;7070;53.586;9.692;2023-05-19T05:43:46;9.70;71.90
13992;DHT22;7070;53.586;9.692;2023-05-19T05:46:14;9.80;71.90
13992;DHT22;7070;53.586;9.692;2023-05-19T05:48:41;9.90;72.50
13992;DHT22;7070;53.586;9.692;2023-05-19T05:51:09;10.00;71.50
13992;DHT22;7070;53.586;9.692;2023-05-19T05:53:39;10.10;70.90
13992;DHT22;7070;53.586;9.692;2023-05-19T05:56:09;10.20;70.70
13992;DHT22;7070;53.586;9.692;2023-05-19T05:58:36;10.40;70.70
13992;DHT22;7070;53.586;9.692;2023-05-19T06:01:05;10.50;71.20
13992;DHT22;7070;53.586;9.692;2023-05-19T06:03:37;10.60;70.40
13992;DHT22;7070;53.586;9.692;2023-05-19T06:06:04;10.70;70.10
13992;DHT22;7070;53.586;9.692;2023-05-19T06:08:31;10.70;70.10
13992;DHT22;7070;53.586;9.692;2023-05-19T06:10:58;10.80;70.00
13992;DHT22;7070;53.586;9.692;2023-05-19T06:13:25;10.90;70.00
13992;DHT22;7070;53.586;9.692;2023-05-19T06:15:52;11.10;70.00
13992;DHT22;7070;53.586;9.692;2023-05-19T06:18:19;11.10;70.60
13992;DHT22;7070;53.586;9.692;2023-05-19T06:20:47;11.20;69.90
13992;DHT22;7070;53.586;9.692;2023-05-19T06:23:13;11.30;69.80
13992;DHT22;7070;53.586;9.692;2023-05-19T06:25:40;11.40;69.70
13992;DHT22;7070;53.586;9.692;2023-05-19T06:28:07;11.50;69.60
13992;DHT22;7070;53.586;9.692;2023-05-19T06:30:34;11.60;69.60
13992;DHT22;7070;53.586;9.692;2023-05-19T06:33:01;11.60;70.10
13992;DHT22;7070;53.586;9.692;2023-05-19T06:35:29;11.80;69.30
13992;DHT22;7070;53.586;9.692;2023-05-19T06:37:57;11.90;69.30
13992;DHT22;7070;53.586;9.692;2023-05-19T06:40:24;12.00;70.20
13992;DHT22;7070;53.586;9.692;2023-05-19T06:42:50;12.10;69.60
13992;DHT22;7070;53.586;9.692;2023-05-19T06:45:17;12.20;69.60
13992;DHT22;7070;53.586;9.692;2023-05-19T06:47:46;12.40;69.30
13992;DHT22;7070;53.586;9.692;2023-05-19T06:50:13;12.50;69.10
13992;DHT22;7070;53.586;9.692;2023-05-19T06:52:40;12.70;69.20
13992;DHT22;7070;53.586;9.692;2023-05-19T06:55:10;12.70;68.90
13992;DHT22;7070;53.586;9.692;2023-05-19T06:57:37;12.90;69.10
13992;DHT22;7070;53.586;9.692;2023-05-19T07:00:05;13.10;69.00
13992;DHT22;7070;53.586;9.692;2023-05-19T07:02:33;13.20;68.80
13992;DHT22;7070;53.586;9.692;2023-05-19T07:05:00;13.40;68.60
13992;DHT22;7070;53.586;9.692;2023-05-19T07:07:27;13.50;68.30
13992;DHT22;7070;53.586;9.692;2023-05-19T07:09:54;13.60;67.80
13992;DHT22;7070;53.586;9.692;2023-05-19T07:12:23;13.70;67.60
13992;DHT22;7070;53.586;9.692;2023-05-19T07:14:51;13.80;67.60
13992;DHT22;7070;53.586;9.692;2023-05-19T07:17:17;13.80;67.10
13992;DHT22;7070;53.586;9.692;2023-05-19T07:19:44;13.90;67.00
13992;DHT22;7070;53.586;9.692;2023-05-19T07:22:11;13.90;66.90
13992;DHT22;7070;53.586;9.692;2023-05-19T07:24:38;14.00;66.90
13992;DHT22;7070;53.586;9.692;2023-05-19T07:27:05;14.00;66.90
13992;DHT22;7070;53.586;9.692;2023-05-19T07:29:33;14.10;67.00
13992;DHT22;7070;53.586;9.692;2023-05-19T07:32:00;14.10;66.60
13992;DHT22;7070;53.586;9.692;2023-05-19T07:34:27;14.20;66.50
13992;DHT22;7070;53.586;9.692;2023-05-19T07:36:53;14.20;66.20
13992;DHT22;7070;53.586;9.692;2023-05-19T07:39:20;14.30;67.00
13992;DHT22;7070;53.586;9.692;2023-05-19T07:41:49;14.30;66.30
13992;DHT22;7070;53.586;9.692;2023-05-19T07:44:20;14.30;66.00
13992;DHT22;7070;53.586;9.692;2023-05-19T07:46:48;14.50;66.10
13992;DHT22;7070;53.586;9.692;2023-05-19T07:49:15;14.50;66.10
13992;DHT22;7070;53.586;9.692;2023-05-19T07:51:42;14.60;65.90
13992;DHT22;7070;53.586;9.692;2023-05-19T07:54:08;14.70;65.60
13992;DHT22;7070;53.586;9.692;2023-05-19T07:56:35;14.90;66.20
13992;DHT22;7070;53.586;9.692;2023-05-19T07:59:03;15.00;65.90
13992;DHT22;7070;53.586;9.692;2023-05-19T08:01:30;15.20;66.00
13992;DHT22;7070;53.586;9.692;2023-05-19T08:03:58;15.30;66.10
13992;DHT22;7070;53.586;9.692;2023-05-19T08:06:25;15.50;65.70
13992;DHT22;7070;53.586;9.692;2023-05-19T08:08:52;15.60;65.10
13992;DHT22;7070;53.586;9.692;2023-05-19T08:11:19;15.80;64.30
13992;DHT22;7070;53.586;9.692;2023-05-19T08:13:46;15.90;63.50
13992;DHT22;7070;53.586;9.692;2023-05-19T08:16:14;16.00;63.40
13992;DHT22;7070;53.586;9.692;2023-05-19T08:18:40;16.10;64.10
13992;DHT22;7070;53.586;9.692;2023-05-19T08:21:09;16.30;63.70
13992;DHT22;7070;53.586;9.692;2023-05-19T08:23:36;16.40;63.50
13992;DHT22;7070;53.586;9.692;2023-05-19T08:26:03;16.50;63.20
13992;DHT22;7070;53.586;9.692;2023-05-19T08:28:30;16.70;63.30
13992;DHT22;7070;53.586;9.692;2023-05-19T08:30:57;16.80;62.80
13992;DHT22;7070;53.586;9.692;2023-05-19T08:33:24;17.00;62.70
13992;DHT22;7070;53.586;9.692;2023-05-19T08:35:50;17.00;62.30
13992;DHT22;7070;53.586;9.692;2023-05-19T08:38:19;17.10;61.70
13992;DHT22;7070;53.586;9.692;2023-05-19T08:40:47;17.20;61.10
13992;DHT22;7070;53.586;9.692;2023-05-19T08:43:14;17.20;60.70
13992;DHT22;7070;53.586;9.692;2023-05-19T08:45:43;17.20;60.40
13992;DHT22;7070;53.586;9.692;2023-05-19T08:48:12;17.20;60.20
13992;DHT22;7070;53.586;9.692;2023-05-19T08:50:40;17.10;59.90
13992;DHT22;7070;53.586;9.692;2023-05-19T08:53:18;17.10;59.80
13992;DHT22;7070;53.586;9.692;2023-05-19T08:55:54;17.10;59.90
13992;DHT22;7070;53.586;9.692;2023-05-19T08:58:23;17.00;59.80
13992;DHT22;7070;53.586;9.692;2023-05-19T09:00:51;17.00;59.80
13992;DHT22;7070;53.586;9.692;2023-05-19T09:03:19;16.90;59.80
13992;DHT22;7070;53.586;9.692;2023-05-19T09:05:47;17.00;60.00
13992;DHT22;7070;53.586;9.692;2023-05-19T09:08:14;17.00;60.30
13992;DHT22;7070;53.586;9.692;2023-05-19T09:10:41;17.00;60.50
13992;DHT22;7070;53.586;9.692;2023-05-19T09:13:09;17.10;61.30
13992;DHT22;7070;53.586;9.692;2023-05-19T09:15:38;17.10;60.40
13992;DHT22;7070;53.586;9.692;2023-05-19T09:18:07;17.20;60.70
13992;DHT22;7070;53.586;9.692;2023-05-19T09:20:39;17.30;60.90
13992;DHT22;7070;53.586;9.692;2023-05-19T09:23:05;17.40;61.10
13992;DHT22;7070;53.586;9.692;2023-05-19T09:25:33;17.60;60.90
13992;DHT22;7070;53.586;9.692;2023-05-19T09:28:00;17.60;60.40
13992;DHT22;7070;53.586;9.692;2023-05-19T09:30:29;17.80;60.30
13992;DHT22;7070;53.586;9.692;2023-05-19T09:32:56;17.90;60.20
13992;DHT22;7070;53.586;9.692;2023-05-19T09:35:23;18.00;59.70
13992;DHT22;7070;53.586;9.692;2023-05-19T09:37:50;18.10;59.30
13992;DHT22;7070;53.586;9.692;2023-05-19T09:40:17;18.20;59.10
13992;DHT22;7070;53.586;9.692;2023-05-19T09:42:43;18.20;59.30
13992;DHT22;7070;53.586;9.692;2023-05-19T09:45:10;18.40;59.50
13992;DHT22;7070;53.586;9.692;2023-05-19T09:47:39;18.50;59.50
13992;DHT22;7070;53.586;9.692;2023-05-19T09:50:08;18.50;59.40
13992;DHT22;7070;53.586;9.692;2023-05-19T09:52:35;18.70;59.50
13992;DHT22;7070;53.586;9.692;2023-05-19T09:55:04;18.70;58.50
13992;DHT22;7070;53.586;9.692;2023-05-19T09:57:34;18.80;58.20
13992;DHT22;7070;53.586;9.692;2023-05-19T10:00:03;18.80;57.80
13992;DHT22;7070;53.586;9.692;2023-05-19T10:02:43;18.70;57.60
13992;DHT22;7070;53.586;9.692;2023-05-19T10:05:12;18.70;58.00
13992;DHT22;7070;53.586;9.692;2023-05-19T10:07:41;18.60;58.00
13992;DHT22;7070;53.586;9.692;2023-05-19T10:10:11;18.60;57.70
13992;DHT22;7070;53.586;9.692;2023-05-19T10:12:38;18.70;58.10
13992;DHT22;7070;53.586;9.692;2023-05-19T10:15:08;18.70;58.20
13992;DHT22;7070;53.586;9.692;2023-05-19T10:17:37;18.70;58.40
13992;DHT22;7070;53.586;9.692;2023-05-19T10:20:07;18.80;58.10
13992;DHT22;7070;53.586;9.692;2023-05-19T10:22:35;19.00;58.10
13992;DHT22;7070;53.586;9.692;2023-05-19T10:25:02;19.00;57.50
13992;DHT22;7070;53.586;9.692;2023-05-19T10:27:30;19.20;57.60
13992;DHT22;7070;53.586;9.692;2023-05-19T10:30:01;19.20;57.30
13992;DHT22;7070;53.586;9.692;2023-05-19T10:32:31;19.30;57.50
13992;DHT22;7070;53.586;9.692;2023-05-19T10:35:35;19.30;57.40
13992;DHT22;7070;53.586;9.692;2023-05-19T10:38:14;19.40;57.40
13992;DHT22;7070;53.586;9.692;2023-05-19T10:40:52;19.50;57.50
13992;DHT22;7070;53.586;9.692;2023-05-19T10:43:27;19.50;57.50
13992;DHT22;7070;53.586;9.692;2023-05-19T10:45:57;19.60;57.60
13992;DHT22;7070;53.586;9.692;2023-05-19T10:48:24;19.70;57.60
13992;DHT22;7070;53.586;9.692;2023-05-19T10:50:53;19.70;57.20
13992;DHT22;7070;53.586;9.692;2023-05-19T10:53:29;19.70;57.20
13992;DHT22;7070;53.586;9.692;2023-05-19T10:55:56;19.80;57.40
13992;DHT22;7070;53.586;9.692;2023-05-19T10:58:38;19.90;56.90
13992;DHT22;7070;53.586;9.692;2023-05-19T11:01:06;20.00;57.20
13992;DHT22;7070;53.586;9.692;2023-05-19T11:03:45;20.00;56.70
13992;DHT22;7070;53.586;9.692;2023-05-19T11:06:23;20.10;56.70
13992;DHT22;7070;53.586;9.692;2023-05-19T11:08:56;20.10;56.10
13992;DHT22;7070;53.586;9.692;2023-05-19T11:11:23;20.00;55.90
13992;DHT22;7070;53.586;9.692;2023-05-19T11:13:51;20.00;55.90
13992;DHT22;7070;53.586;9.692;2023-05-19T11:16:25;20.00;56.20
13992;DHT22;7070;53.586;9.692;2023-05-19T11:18:53;20.00;56.30
13992;DHT22;7070;53.586;9.692;2023-05-19T11:21:21;19.90;55.60
13992;DHT22;7070;53.586;9.692;2023-05-19T11:23:50;19.90;55.50
13992;DHT22;7070;53.586;9.692;2023-05-19T11:26:39;19.90;55.50
13992;DHT22;7070;53.586;9.692;2023-05-19T11:29:06;19.80;55.60
13992;DHT22;7070;53.586;9.692;2023-05-19T11:31:35;19.80;56.40
13992;DHT22;7070;53.586;9.692;2023-05-19T11:34:02;19.80;55.50
13992;DHT22;7070;53.586;9.692;2023-05-19T11:36:35;19.90;55.90
13992;DHT22;7070;53.586;9.692;2023-05-19T11:39:03;19.90;56.10
13992;DHT22;7070;53.586;9.692;2023-05-19T11:41:31;19.90;56.00
13992;DHT22;7070;53.586;9.692;2023-05-19T11:43:58;20.10;55.40
13992;DHT22;7070;53.586;9.692;2023-05-19T11:46:25;20.10;54.70
13992;DHT22;7070;53.586;9.692;2023-05-19T11:48:53;20.10;54.50
13992;DHT22;7070;53.586;9.692;2023-05-19T11:51:20;20.00;54.00
13992;DHT22;7070;53.586;9.692;2023-05-19T11:53:49;19.90;54.10
13992;DHT22;7070;53.586;9.692;2023-05-19T11:56:18;19.80;53.80
13992;DHT22;7070;53.586;9.692;2023-05-19T11:58:46;19.70;54.00
13992;DHT22;7070;53.586;9.692;2023-05-19T12:01:13;19.60;54.00
13992;DHT22;7070;53.586;9.692;2023-05-19T12:03:40;19.60;54.50
13992;DHT22;7070;53.586;9.692;2023-05-19T12:06:07;19.60;54.80
13992;DHT22;7070;53.586;9.692;2023-05-19T12:08:34;19.50;55.50
13992;DHT22;7070;53.586;9.692;2023-05-19T12:11:04;19.70;55.60
13992;DHT22;7070;53.586;9.692;2023-05-19T12:13:32;19.80;56.00
13992;DHT22;7070;53.586;9.692;2023-05-19T12:15:59;19.90;55.80
13992;DHT22;7070;53.586;9.692;2023-05-19T12:18:28;20.00;55.10
13992;DHT22;7070;53.586;9.692;2023-05-19T12:20:56;20.20;55.30
13992;DHT22;7070;53.586;9.692;2023-05-19T12:23:23;20.30;54.90
13992;DHT22;7070;53.586;9.692;2023-05-19T12:25:50;20.30;54.90
13992;DHT22;7070;53.586;9.692;2023-05-19T12:28:18;20.30;54.70
13992;DHT22;7070;53.586;9.692;2023-05-19T12:30:47;20.40;53.20
13992;DHT22;7070;53.586;9.692;2023-05-19T12:33:16;20.40;53.30
13992;DHT22;7070;53.586;9.692;2023-05-19T12:35:43;20.30;53.40
13992;DHT22;7070;53.586;9.692;2023-05-19T12:38:12;20.30;53.20
13992;DHT22;7070;53.586;9.692;2023-05-19T12:40:39;20.30;53.60
13992;DHT22;7070;53.586;9.692;2023-05-19T12:43:06;20.30;53.70
13992;DHT22;7070;53.586;9.692;2023-05-19T12:45:35;20.30;53.90
13992;DHT22;7070;53.586;9.692;2023-05-19T12:48:03;20.30;53.90
13992;DHT22;7070;53.586;9.692;2023-05-19T12:50:31;20.30;53.80
13992;DHT22;7070;53.586;9.692;2023-05-19T12:52:58;20.30;53.60
13992;DHT22;7070;53.586;9.692;2023-05-19T12:55:25;20.40;53.90
13992;DHT22;7070;53.586;9.692;2023-05-19T12:57:52;20.50;53.80
13992;DHT22;7070;53.586;9.692;2023-05-19T13:00:22;20.60;54.40
13992;DHT22;7070;53.586;9.692;2023-05-19T13:02:58;20.70;55.10
13992;DHT22;7070;53.586;9.692;2023-05-19T13:05:26;20.90;54.70
13992;DHT22;7070;53.586;9.692;2023-05-19T13:07:54;21.10;54.00
13992;DHT22;7070;53.586;9.692;2023-05-19T13:10:21;21.20;53.30
13992;DHT22;7070;53.586;9.692;2023-05-19T13:12:48;21.30;52.30
13992;DHT22;7070;53.586;9.692;2023-05-19T13:15:15;21.30;52.40
13992;DHT22;7070;53.586;9.692;2023-05-19T13:17:42;21.30;52.80
13992;DHT22;7070;53.586;9.692;2023-05-19T13:20:12;21.30;52.80
13992;DHT22;7070;53.586;9.692;2023-05-19T13:22:39;21.20;52.40
13992;DHT22;7070;53.586;9.692;2023-05-19T13:25:07;21.20;52.00
13992;DHT22;7070;53.586;9.692;2023-05-19T13:27:34;21.20;51.90
13992;DHT22;7070;53.586;9.692;2023-05-19T13:30:01;21.10;52.00
13992;DHT22;7070;53.586;9.692;2023-05-19T13:32:29;21.10;52.00
13992;DHT22;7070;53.586;9.692;2023-05-19T13:34:56;21.00;52.20
13992;DHT22;7070;53.586;9.692;2023-05-19T13:37:24;20.90;52.90
13992;DHT22;7070;53.586;9.692;2023-05-19T13:39:51;20.90;52.30
13992;DHT22;7070;53.586;9.692;2023-05-19T13:42:18;21.00;52.10
13992;DHT22;7070;53.586;9.692;2023-05-19T13:44:45;21.10;52.50
13992;DHT22;7070;53.586;9.692;2023-05-19T13:47:12;21.20;51.60
13992;DHT22;7070;53.586;9.692;2023-05-19T13:49:40;21.20;51.60
13992;DHT22;7070;53.586;9.692;2023-05-19T13:52:07;21.20;51.40
13992;DHT22;7070;53.586;9.692;2023-05-19T13:54:35;21.20;50.80
13992;DHT22;7070;53.586;9.692;2023-05-19T13:57:02;21.10;50.80
13992;DHT22;7070;53.586;9.692;2023-05-19T13:59:30;21.00;51.00
13992;DHT22;7070;53.586;9.692;2023-05-19T14:01:57;20.90;51.20
13992;DHT22;7070;53.586;9.692;2023-05-19T14:04:24;20.70;50.90
13992;DHT22;7070;53.586;9.692;2023-05-19T14:06:51;20.60;51.30
13992;DHT22;7070;53.586;9.692;2023-05-19T14:09:18;20.60;51.60
13992;DHT22;7070;53.586;9.692;2023-05-19T14:11:47;20.50;51.60
13992;DHT22;7070;53.586;9.692;2023-05-19T14:14:14;20.50;51.80
13992;DHT22;7070;53.586;9.692;2023-05-19T14:16:41;20.50;51.80
13992;DHT22;7070;53.586;9.692;2023-05-19T14:19:08;20.50;51.90
13992;DHT22;7070;53.586;9.692;2023-05-19T14:21:36;20.50;51.80
13992;DHT22;7070;53.586;9.692;2023-05-19T14:24:03;20.50;52.00
13992;DHT22;7070;53.586;9.692;2023-05-19T14:26:30;20.50;51.60
13992;DHT22;7070;53.586;9.692;2023-05-19T14:28:58;20.60;51.90
13992;DHT22;7070;53.586;9.692;2023-05-19T14:31:25;20.60;52.60
13992;DHT22;7070;53.586;9.692;2023-05-19T14:33:52;20.60;52.60
13992;DHT22;7070;53.586;9.692;2023-05-19T14:36:19;20.60;51.90
13992;DHT22;7070;53.586;9.692;2023-05-19T14:38:46;20.70;51.80
13992;DHT22;7070;53.586;9.692;2023-05-19T14:41:13;20.60;51.50
13992;DHT22;7070;53.586;9.692;2023-05-19T14:43:39;20.60;51.60
13992;DHT22;7070;53.586;9.692;2023-05-19T14:46:08;20.60;51.60
13992;DHT22;7070;53.586;9.692;2023-05-19T14:48:35;20.60;51.90
13992;DHT22;7070;53.586;9.692;2023-05-19T14:51:02;20.60;52.00
13992;DHT22;7070;53.586;9.692;2023-05-19T14:53:29;20.60;51.20
13992;DHT22;7070;53.586;9.692;2023-05-19T14:55:56;20.50;51.50
13992;DHT22;7070;53.586;9.692;2023-05-19T14:58:23;20.50;51.70
13992;DHT22;7070;53.586;9.692;2023-05-19T15:00:50;20.50;51.60
13992;DHT22;7070;53.586;9.692;2023-05-19T15:03:18;20.40;51.50
13992;DHT22;7070;53.586;9.692;2023-05-19T15:05:45;20.40;51.60
13992;DHT22;7070;53.586;9.692;2023-05-19T15:08:13;20.40;51.80
13992;DHT22;7070;53.586;9.692;2023-05-19T15:10:40;20.30;51.80
13992;DHT22;7070;53.586;9.692;2023-05-19T15:13:07;20.20;51.80
13992;DHT22;7070;53.586;9.692;2023-05-19T15:15:34;20.20;52.10
13992;DHT22;7070;53.586;9.692;2023-05-19T15:18:01;20.20;52.40
13992;DHT22;7070;53.586;9.692;2023-05-19T15:20:29;20.10;52.50
13992;DHT22;7070;53.586;9.692;2023-05-19T15:22:56;20.20;52.80
13992;DHT22;7070;53.586;9.692;2023-05-19T15:25:22;20.30;52.40
13992;DHT22;7070;53.586;9.692;2023-05-19T15:27:49;20.40;52.30
13992;DHT22;7070;53.586;9.692;2023-05-19T15:30:16;20.40;52.00
13992;DHT22;7070;53.586;9.692;2023-05-19T15:32:43;20.40;51.80
13992;DHT22;7070;53.586;9.692;2023-05-19T15:35:10;20.40;51.60
13992;DHT22;7070;53.586;9.692;2023-05-19T15:37:38;20.30;51.50
13992;DHT22;7070;53.586;9.692;2023-05-19T15:40:06;20.20;51.70
13992;DHT22;7070;53.586;9.692;2023-05-19T15:42:33;20.10;51.80
13992;DHT22;7070;53.586;9.692;2023-05-19T15:45:00;20.00;51.90
13992;DHT22;7070;53.586;9.692;2023-05-19T15:47:27;20.00;51.80
13992;DHT22;7070;53.586;9.692;2023-05-19T15:49:53;19.90;51.60
13992;DHT22;7070;53.586;9.692;2023-05-19T15:52:20;19.90;51.40
13992;DHT22;7070;53.586;9.692;2023-05-19T15:54:48;19.90;52.00
13992;DHT22;7070;53.586;9.692;2023-05-19T15:57:15;20.00;52.60
13992;DHT22;7070;53.586;9.692;2023-05-19T15:59:42;20.10;52.70
13992;DHT22;7070;53.586;9.692;2023-05-19T16:02:10;20.10;52.90
13992;DHT22;7070;53.586;9.692;2023-05-19T16:04:37;20.20;53.10